Time;durP1;ratioP1;P1;durP2;ratioP2;P2;SDS_P1;SDS_P2;PMS_P1;PMS_P2;Temp;Humidity;BMP_temperature;BMP_pressure;BME280_temperature;BME280_humidity;BME280_pressure;Samples;Min_cycle;Max_cycle;Signal;HPM_P1;HPM_P2
2024/03/30 00:00:15;;;;;;;2.65;1.25;;;;;;;;;;4950517;29;20047;-80
2024/03/30 00:02:47;;;;;;;6.47;1.48;;;;;;;;;;4937246;29;20059;-78
2024/03/30 00:05:15;;;;;;;3.92;1.40;;;;;;;;;;4952614;29;20039;-77
2024/03/30 00:07:44;;;;;;;4.85;1.50;;;;;;;;;;4953034;28;20078;-84
2024/03/30 00:10:12;;;;;;;3.92;1.55;;;;;;;;;;4953669;29;20063;-79
2024/03/30 00:12:41;;;;;;;5.82;1.60;;;;;;;;;;4954181;29;20132;-80
2024/03/30 00:15:10;;;;;;;5.18;1.65;;;;;;;;;;4965630;28;20062;-80
2024/03/30 00:17:39;;;;;;;4.40;1.42;;;;;;;;;;4972018;28;20058;-81
2024/03/30 00:20:07;;;;;;;3.55;1.50;;;;;;;;;;4971873;28;20501;-79
2024/03/30 00:22:35;;;;;;;4.38;1.15;;;;;;;;;;4972794;28;20053;-79
2024/03/30 00:25:04;;;;;;;2.70;1.20;;;;;;;;;;4971550;28;20095;-79
2024/03/30 00:27:32;;;;;;;7.90;1.50;;;;;;;;;;4971600;28;20054;-78
2024/03/30 00:30:00;;;;;;;4.28;1.63;;;;;;;;;;4969299;28;20497;-78
2024/03/30 00:32:28;;;;;;;6.43;1.33;;;;;;;;;;4967621;28;20047;-80
2024/03/30 00:34:56;;;;;;;4.32;1.98;;;;;;;;;;4964719;28;20450;-80
2024/03/30 00:37:25;;;;;;;2.15;1.55;;;;;;;;;;4950727;29;20509;-78
2024/03/30 00:39:54;;;;;;;4.82;1.58;;;;;;;;;;4960177;28;20055;-80
2024/03/30 00:42:22;;;;;;;6.75;1.70;;;;;;;;;;4951749;28;20062;-80
2024/03/30 00:44:50;;;;;;;3.63;1.38;;;;;;;;;;4950710;29;20062;-79
2024/03/30 00:47:19;;;;;;;3.88;1.77;;;;;;;;;;4951397;28;20051;-82
2024/03/30 00:49:47;;;;;;;5.43;1.77;;;;;;;;;;4952136;29;20070;-81
2024/03/30 00:52:15;;;;;;;5.43;1.98;;;;;;;;;;4973367;28;20417;-78
2024/03/30 00:54:43;;;;;;;4.38;1.75;;;;;;;;;;4992505;28;20406;-78
2024/03/30 00:57:12;;;;;;;6.05;1.30;;;;;;;;;;4993612;28;20058;-79
2024/03/30 00:59:41;;;;;;;8.95;1.92;;;;;;;;;;4992624;28;20421;-81
2024/03/30 01:02:09;;;;;;;6.22;1.83;;;;;;;;;;4993614;28;20050;-82
2024/03/30 01:04:37;;;;;;;4.68;1.52;;;;;;;;;;4992719;28;20054;-80
2024/03/30 01:07:05;;;;;;;6.25;1.88;;;;;;;;;;4977352;28;20560;-79
2024/03/30 01:09:33;;;;;;;6.78;1.65;;;;;;;;;;4993476;28;20065;-79
2024/03/30 01:12:02;;;;;;;5.18;2.00;;;;;;;;;;4992664;28;20062;-83
2024/03/30 01:14:33;;;;;;;5.05;1.20;;;;;;;;;;4993773;28;20054;-79
2024/03/30 01:17:01;;;;;;;2.63;1.45;;;;;;;;;;4956158;28;20067;-79
2024/03/30 01:19:30;;;;;;;4.28;1.92;;;;;;;;;;4954390;29;20071;-80
2024/03/30 01:22:23;;;;;;;3.65;1.45;;;;;;;;;;4955230;28;20044;-83
2024/03/30 01:24:52;;;;;;;2.90;1.55;;;;;;;;;;4954111;29;20059;-82
2024/03/30 01:27:22;;;;;;;4.70;1.70;;;;;;;;;;4954598;28;20047;-79
2024/03/30 01:29:51;;;;;;;5.43;1.42;;;;;;;;;;4954658;28;20058;-79
2024/03/30 01:32:19;;;;;;;3.40;1.42;;;;;;;;;;4954368;29;20055;-79
2024/03/30 01:34:48;;;;;;;9.07;1.55;;;;;;;;;;4953547;29;20062;-79
2024/03/30 01:37:16;;;;;;;5.22;1.88;;;;;;;;;;4953673;29;20067;-80
2024/03/30 01:39:44;;;;;;;6.47;1.58;;;;;;;;;;4954063;29;20051;-80
2024/03/30 01:42:12;;;;;;;6.22;1.55;;;;;;;;;;4953890;29;20065;-80
2024/03/30 01:44:41;;;;;;;5.82;1.48;;;;;;;;;;4955664;28;20532;-80
2024/03/30 01:47:10;;;;;;;6.60;2.00;;;;;;;;;;4974204;28;20050;-80
2024/03/30 01:49:38;;;;;;;12.13;1.90;;;;;;;;;;4974401;28;20054;-83
2024/03/30 01:52:07;;;;;;;4.03;1.48;;;;;;;;;;4975653;28;20055;-81
2024/03/30 01:54:35;;;;;;;5.78;1.35;;;;;;;;;;4975681;28;20058;-81
2024/03/30 01:57:03;;;;;;;6.72;1.85;;;;;;;;;;4975203;28;20050;-81
2024/03/30 01:59:31;;;;;;;3.95;1.50;;;;;;;;;;4975661;28;20062;-80
2024/03/30 02:02:03;;;;;;;7.20;1.48;;;;;;;;;;4975510;28;20050;-80
2024/03/30 02:04:57;;;;;;;8.45;1.85;;;;;;;;;;4979307;28;20058;-81
2024/03/30 02:07:25;;;;;;;8.75;1.42;;;;;;;;;;4975719;28;20513;-80
2024/03/30 02:09:53;;;;;;;2.40;1.30;;;;;;;;;;4975688;28;20061;-82
2024/03/30 02:12:22;;;;;;;3.03;1.50;;;;;;;;;;4974971;28;20077;-79
2024/03/30 02:14:51;;;;;;;4.93;1.50;;;;;;;;;;4974563;28;20085;-79
2024/03/30 02:17:19;;;;;;;8.35;1.83;;;;;;;;;;4974422;28;20043;-83
2024/03/30 02:19:47;;;;;;;5.03;1.85;;;;;;;;;;4973992;28;20058;-78
2024/03/30 02:22:18;;;;;;;5.90;2.00;;;;;;;;;;4972515;28;20043;-80
2024/03/30 02:24:47;;;;;;;2.75;1.40;;;;;;;;;;4973678;28;20054;-79
2024/03/30 02:27:16;;;;;;;4.18;1.60;;;;;;;;;;4971370;28;20058;-80
2024/03/30 02:29:50;;;;;;;4.50;1.70;;;;;;;;;;4973520;28;20059;-79
2024/03/30 02:32:22;;;;;;;5.30;2.05;;;;;;;;;;4973742;28;20409;-79
2024/03/30 02:34:51;;;;;;;6.88;2.50;;;;;;;;;;4956049;28;20058;-81
2024/03/30 02:37:19;;;;;;;5.60;1.60;;;;;;;;;;4971658;28;20062;-82
2024/03/30 02:39:47;;;;;;;5.32;1.50;;;;;;;;;;4972137;28;20054;-80
2024/03/30 02:42:16;;;;;;;6.00;1.70;;;;;;;;;;4973946;28;20055;-80
2024/03/30 02:44:44;;;;;;;5.82;2.28;;;;;;;;;;4974492;28;20035;-80
2024/03/30 02:47:12;;;;;;;7.15;1.50;;;;;;;;;;4973784;28;20402;-83
2024/03/30 02:49:40;;;;;;;5.28;1.73;;;;;;;;;;4973685;28;20066;-81
2024/03/30 02:52:09;;;;;;;4.95;2.25;;;;;;;;;;4973740;28;20075;-83
2024/03/30 02:54:37;;;;;;;6.53;2.35;;;;;;;;;;4958499;28;20390;-81
2024/03/30 02:57:05;;;;;;;5.13;1.95;;;;;;;;;;4974474;28;20076;-81
2024/03/30 02:59:33;;;;;;;5.90;2.00;;;;;;;;;;4973830;28;20061;-79
2024/03/30 03:02:01;;;;;;;8.52;2.70;;;;;;;;;;4972934;28;20417;-80
2024/03/30 03:07:22;;;;;;;6.82;2.03;;;;;;;;;;4973122;28;20054;-79
2024/03/30 03:09:50;;;;;;;4.28;2.25;;;;;;;;;;4973191;28;20057;-79
2024/03/30 03:12:19;;;;;;;4.50;2.25;;;;;;;;;;4973284;28;20047;-81
2024/03/30 03:14:47;;;;;;;7.60;2.60;;;;;;;;;;4973706;28;20042;-81
2024/03/30 03:17:15;;;;;;;4.68;1.92;;;;;;;;;;4972760;28;20130;-82
2024/03/30 03:19:44;;;;;;;4.40;2.40;;;;;;;;;;4973007;28;20389;-81
2024/03/30 03:22:12;;;;;;;9.10;2.00;;;;;;;;;;4973515;28;20508;-83
2024/03/30 03:24:40;;;;;;;5.53;1.92;;;;;;;;;;4973082;28;20051;-82
2024/03/30 03:27:08;;;;;;;5.35;2.08;;;;;;;;;;4973834;28;20054;-79
2024/03/30 03:29:36;;;;;;;6.15;2.10;;;;;;;;;;4978005;28;20055;-80
2024/03/30 03:32:05;;;;;;;5.32;1.70;;;;;;;;;;4980732;28;20078;-79
2024/03/30 03:34:33;;;;;;;6.72;1.73;;;;;;;;;;4977756;28;20050;-80
2024/03/30 03:37:01;;;;;;;5.18;2.35;;;;;;;;;;4975294;28;20409;-80
2024/03/30 03:39:29;;;;;;;8.93;2.58;;;;;;;;;;4975583;28;20039;-80
2024/03/30 03:41:59;;;;;;;6.78;1.92;;;;;;;;;;4973501;28;20058;-81
2024/03/30 03:44:27;;;;;;;6.65;2.00;;;;;;;;;;4979909;28;20058;-79
2024/03/30 03:46:56;;;;;;;6.82;2.28;;;;;;;;;;4980642;28;20062;-79
2024/03/30 03:49:25;;;;;;;4.97;2.33;;;;;;;;;;4979969;28;20505;-80
2024/03/30 03:51:53;;;;;;;8.40;2.00;;;;;;;;;;4978805;28;20051;-79
2024/03/30 03:54:21;;;;;;;9.00;2.28;;;;;;;;;;4970368;28;20054;-80
2024/03/30 03:56:49;;;;;;;5.82;1.80;;;;;;;;;;4969754;28;20517;-80
2024/03/30 03:59:18;;;;;;;4.90;1.95;;;;;;;;;;4970029;28;20062;-81
2024/03/30 04:01:46;;;;;;;5.72;2.03;;;;;;;;;;4970049;28;20062;-81
2024/03/30 04:04:17;;;;;;;5.30;2.50;;;;;;;;;;4970481;28;20059;-80
2024/03/30 04:06:45;;;;;;;6.82;2.63;;;;;;;;;;4971465;28;20058;-82
2024/03/30 04:09:15;;;;;;;6.38;2.40;;;;;;;;;;4972664;28;20513;-80
2024/03/30 04:11:44;;;;;;;5.82;2.10;;;;;;;;;;4972750;28;20054;-79
2024/03/30 04:14:13;;;;;;;5.25;2.10;;;;;;;;;;4972108;28;20055;-81
2024/03/30 04:16:41;;;;;;;5.57;2.10;;;;;;;;;;4971839;28;20050;-79
2024/03/30 04:19:17;;;;;;;5.72;2.28;;;;;;;;;;4956423;28;20524;-79
2024/03/30 04:21:46;;;;;;;6.53;2.30;;;;;;;;;;4971869;28;20047;-80
2024/03/30 04:24:14;;;;;;;5.18;2.03;;;;;;;;;;4972204;28;20051;-79
2024/03/30 04:26:42;;;;;;;5.57;2.05;;;;;;;;;;4972529;28;20466;-79
2024/03/30 04:29:11;;;;;;;8.82;2.50;;;;;;;;;;4974006;28;20047;-81
2024/03/30 04:31:39;;;;;;;6.82;2.22;;;;;;;;;;4976262;28;20047;-82
2024/03/30 04:34:07;;;;;;;4.20;2.08;;;;;;;;;;4975851;28;20062;-80
2024/03/30 04:36:35;;;;;;;9.95;2.33;;;;;;;;;;4975956;28;20509;-78
2024/03/30 04:39:04;;;;;;;5.20;2.45;;;;;;;;;;4975898;28;20059;-80
2024/03/30 04:41:32;;;;;;;6.75;2.20;;;;;;;;;;4975850;28;20482;-80
2024/03/30 04:44:00;;;;;;;9.13;2.80;;;;;;;;;;4975746;28;20055;-80
2024/03/30 04:46:28;;;;;;;7.78;3.00;;;;;;;;;;4976240;28;20421;-79
2024/03/30 04:48:57;;;;;;;6.78;2.45;;;;;;;;;;4976465;28;20066;-80
2024/03/30 04:51:25;;;;;;;7.68;2.65;;;;;;;;;;4975719;28;20060;-80
2024/03/30 04:53:53;;;;;;;8.90;3.03;;;;;;;;;;4975207;28;20059;-81
2024/03/30 04:56:24;;;;;;;9.95;2.53;;;;;;;;;;4975906;28;20059;-79
2024/03/30 04:58:52;;;;;;;4.75;2.47;;;;;;;;;;4975450;28;20055;-80
2024/03/30 05:04:41;;;;;;;5.35;2.22;;;;;;;;;;4979530;28;20039;-79
2024/03/30 05:07:10;;;;;;;8.68;2.60;;;;;;;;;;4976006;28;20516;-80
2024/03/30 05:09:38;;;;;;;4.80;2.25;;;;;;;;;;4975933;28;20055;-80
2024/03/30 05:12:07;;;;;;;8.13;2.63;;;;;;;;;;4975795;28;20056;-80
2024/03/30 05:14:35;;;;;;;13.02;2.50;;;;;;;;;;4975698;28;20051;-80
2024/03/30 05:17:03;;;;;;;9.23;2.85;;;;;;;;;;4975218;28;20074;-79
2024/03/30 05:22:18;;;;;;;7.97;2.08;;;;;;;;;;4975816;28;20058;-80
2024/03/30 05:24:46;;;;;;;6.40;2.10;;;;;;;;;;4975398;28;20055;-79
2024/03/30 05:27:14;;;;;;;6.93;3.17;;;;;;;;;;4974920;28;20066;-80
2024/03/30 05:29:42;;;;;;;5.05;2.20;;;;;;;;;;4975027;28;20054;-80
2024/03/30 05:32:10;;;;;;;10.70;2.63;;;;;;;;;;4975604;28;20061;-80
2024/03/30 05:34:38;;;;;;;11.40;3.42;;;;;;;;;;4975190;28;20074;-80
2024/03/30 05:37:07;;;;;;;6.68;2.50;;;;;;;;;;4974869;28;20058;-79
2024/03/30 05:39:35;;;;;;;4.35;2.20;;;;;;;;;;4959103;28;20061;-80
2024/03/30 05:42:03;;;;;;;8.13;2.45;;;;;;;;;;4974311;28;20063;-80
2024/03/30 05:44:32;;;;;;;8.60;2.38;;;;;;;;;;4975208;28;20062;-79
2024/03/30 05:47:00;;;;;;;5.72;1.77;;;;;;;;;;4974951;28;20054;-82
2024/03/30 05:49:28;;;;;;;5.85;2.20;;;;;;;;;;4974378;28;20058;-82
2024/03/30 05:51:56;;;;;;;9.02;2.30;;;;;;;;;;4974882;28;20058;-80
2024/03/30 05:54:24;;;;;;;9.50;1.88;;;;;;;;;;4974693;28;20490;-80
2024/03/30 05:56:52;;;;;;;4.68;2.10;;;;;;;;;;4974864;28;20054;-80
2024/03/30 05:59:21;;;;;;;4.47;1.77;;;;;;;;;;4974640;28;20054;-78
2024/03/30 06:01:49;;;;;;;7.03;2.03;;;;;;;;;;4974040;28;20062;-79
2024/03/30 06:04:17;;;;;;;4.82;2.15;;;;;;;;;;4974489;28;20061;-82
2024/03/30 06:06:46;;;;;;;7.18;2.40;;;;;;;;;;4973839;28;20061;-79
2024/03/30 06:09:14;;;;;;;4.88;2.22;;;;;;;;;;4974166;28;20055;-80
2024/03/30 06:11:42;;;;;;;6.45;2.00;;;;;;;;;;4974218;28;20062;-80
2024/03/30 06:14:10;;;;;;;7.82;2.00;;;;;;;;;;4974243;28;20055;-80
2024/03/30 06:16:39;;;;;;;8.63;2.35;;;;;;;;;;4973772;28;20502;-80
2024/03/30 06:19:07;;;;;;;5.32;1.92;;;;;;;;;;4974220;28;20525;-82
2024/03/30 06:21:35;;;;;;;4.85;2.05;;;;;;;;;;4974771;28;20045;-80
2024/03/30 06:24:04;;;;;;;8.30;2.20;;;;;;;;;;4974548;28;20062;-80
2024/03/30 06:26:32;;;;;;;4.13;2.40;;;;;;;;;;4973629;28;20402;-80
2024/03/30 06:29:00;;;;;;;7.97;2.85;;;;;;;;;;4973762;28;20409;-79
2024/03/30 06:31:28;;;;;;;7.57;2.10;;;;;;;;;;4958266;28;20047;-80
2024/03/30 06:33:58;;;;;;;4.22;1.90;;;;;;;;;;4973939;28;20066;-79
2024/03/30 06:36:26;;;;;;;10.15;2.42;;;;;;;;;;4973787;28;20138;-79
2024/03/30 06:39:22;;;;;;;5.72;1.88;;;;;;;;;;4975592;28;20521;-81
2024/03/30 06:44:37;;;;;;;8.95;2.38;;;;;;;;;;4974548;28;20047;-79
2024/03/30 06:47:05;;;;;;;8.63;2.17;;;;;;;;;;4974318;28;20505;-79
2024/03/30 06:49:35;;;;;;;6.10;2.03;;;;;;;;;;4973229;28;20055;-80
2024/03/30 06:52:03;;;;;;;8.07;2.20;;;;;;;;;;4974218;28;20054;-80
2024/03/30 06:54:31;;;;;;;8.43;2.05;;;;;;;;;;4973317;28;20404;-80
2024/03/30 06:56:59;;;;;;;8.10;2.92;;;;;;;;;;4973216;28;20390;-81
2024/03/30 06:59:27;;;;;;;7.43;2.40;;;;;;;;;;4974114;28;20063;-82
2024/03/30 07:01:55;;;;;;;5.55;1.90;;;;;;;;;;4973363;28;20494;-80
2024/03/30 07:04:23;;;;;;;7.15;2.20;;;;;;;;;;4973328;28;20059;-79
2024/03/30 07:06:52;;;;;;;7.68;2.67;;;;;;;;;;4973419;28;20050;-80
2024/03/30 07:09:20;;;;;;;5.10;2.45;;;;;;;;;;4973487;28;20055;-80
2024/03/30 07:11:48;;;;;;;9.35;2.58;;;;;;;;;;4973547;28;20066;-80
2024/03/30 07:14:16;;;;;;;5.05;2.42;;;;;;;;;;4980538;28;20066;-79
2024/03/30 07:16:44;;;;;;;9.98;2.55;;;;;;;;;;4982319;28;20047;-79
2024/03/30 07:19:12;;;;;;;7.03;2.70;;;;;;;;;;4975566;28;20520;-80
2024/03/30 07:21:40;;;;;;;9.05;2.45;;;;;;;;;;4974002;28;20054;-79
2024/03/30 07:24:10;;;;;;;9.60;2.78;;;;;;;;;;4972997;28;20059;-80
2024/03/30 07:26:38;;;;;;;8.45;2.85;;;;;;;;;;4973617;28;20065;-80
2024/03/30 07:29:06;;;;;;;7.18;2.22;;;;;;;;;;4972792;28;20058;-80
2024/03/30 07:31:34;;;;;;;6.60;2.25;;;;;;;;;;4971987;28;20069;-82
2024/03/30 07:34:02;;;;;;;7.85;2.45;;;;;;;;;;4972601;28;20059;-80
2024/03/30 07:36:30;;;;;;;8.32;2.72;;;;;;;;;;4972935;28;20486;-80
2024/03/30 07:38:58;;;;;;;6.28;2.55;;;;;;;;;;4973016;28;20050;-81
2024/03/30 07:41:26;;;;;;;12.65;2.60;;;;;;;;;;4972865;28;20148;-82
2024/03/30 07:43:55;;;;;;;11.00;2.85;;;;;;;;;;4972348;28;20054;-79
2024/03/30 07:46:23;;;;;;;6.57;3.10;;;;;;;;;;4972983;28;20055;-79
2024/03/30 07:48:51;;;;;;;6.55;2.50;;;;;;;;;;4973347;28;20047;-79
2024/03/30 07:51:19;;;;;;;8.77;2.38;;;;;;;;;;4972550;28;20051;-80
2024/03/30 07:53:47;;;;;;;5.55;2.65;;;;;;;;;;4973634;28;20516;-81
2024/03/30 07:56:15;;;;;;;5.15;2.70;;;;;;;;;;4973314;28;20062;-81
2024/03/30 07:58:43;;;;;;;5.35;2.78;;;;;;;;;;4972483;28;20054;-81
2024/03/30 08:01:11;;;;;;;8.60;2.97;;;;;;;;;;4973003;28;20398;-81
2024/03/30 08:03:41;;;;;;;6.78;2.53;;;;;;;;;;4972823;28;20062;-80
2024/03/30 08:06:11;;;;;;;6.32;2.70;;;;;;;;;;4972388;28;20494;-79
2024/03/30 08:08:39;;;;;;;6.32;2.60;;;;;;;;;;4972819;28;20059;-79
2024/03/30 08:11:08;;;;;;;13.20;2.17;;;;;;;;;;4956658;28;20508;-79
2024/03/30 08:13:36;;;;;;;4.63;2.45;;;;;;;;;;4973300;28;20043;-79
2024/03/30 08:16:05;;;;;;;6.97;2.72;;;;;;;;;;4972743;28;20046;-80
2024/03/30 08:18:34;;;;;;;4.68;2.33;;;;;;;;;;4972841;28;20077;-80
2024/03/30 08:21:04;;;;;;;6.05;2.83;;;;;;;;;;4973138;28;20482;-79
2024/03/30 08:23:32;;;;;;;8.80;2.53;;;;;;;;;;4972214;28;20058;-81
2024/03/30 08:26:00;;;;;;;9.02;3.22;;;;;;;;;;4973190;28;20058;-79
2024/03/30 08:28:28;;;;;;;6.40;2.63;;;;;;;;;;4973352;28;20062;-80
2024/03/30 08:30:56;;;;;;;7.38;2.95;;;;;;;;;;4972818;28;20409;-79
2024/03/30 08:33:25;;;;;;;10.10;2.75;;;;;;;;;;4972537;28;20065;-82
2024/03/30 08:35:56;;;;;;;9.25;2.78;;;;;;;;;;4972980;28;20066;-80
2024/03/30 08:38:24;;;;;;;5.18;2.72;;;;;;;;;;4972617;28;20069;-81
2024/03/30 08:40:52;;;;;;;7.72;2.67;;;;;;;;;;4973334;28;20043;-82
2024/03/30 08:43:26;;;;;;;5.68;2.42;;;;;;;;;;4972387;28;20057;-81
2024/03/30 08:45:57;;;;;;;5.90;2.17;;;;;;;;;;4972179;28;20062;-80
2024/03/30 08:48:26;;;;;;;6.78;2.53;;;;;;;;;;4972838;28;20059;-80
2024/03/30 08:50:54;;;;;;;15.05;3.03;;;;;;;;;;4972668;28;20370;-80
2024/03/30 08:53:22;;;;;;;10.90;2.60;;;;;;;;;;4971659;28;20058;-80
2024/03/30 08:55:58;;;;;;;8.63;2.83;;;;;;;;;;4972028;28;20062;-80
2024/03/30 08:58:28;;;;;;;5.10;2.50;;;;;;;;;;4972678;28;20138;-81
2024/03/30 09:00:56;;;;;;;5.70;2.13;;;;;;;;;;4972179;28;20070;-83
2024/03/30 09:03:24;;;;;;;9.88;2.28;;;;;;;;;;4971890;28;20051;-79
2024/03/30 09:05:52;;;;;;;7.00;2.58;;;;;;;;;;4971696;28;20058;-81
2024/03/30 09:08:21;;;;;;;7.18;2.33;;;;;;;;;;4972207;28;20062;-80
2024/03/30 09:10:49;;;;;;;8.57;2.60;;;;;;;;;;4971917;28;20497;-84
2024/03/30 09:13:17;;;;;;;9.20;2.78;;;;;;;;;;4971695;28;20051;-80
2024/03/30 09:15:45;;;;;;;6.57;3.00;;;;;;;;;;4974292;28;20074;-84
2024/03/30 09:18:15;;;;;;;6.68;2.25;;;;;;;;;;4977993;28;20049;-80
2024/03/30 09:20:43;;;;;;;9.45;2.60;;;;;;;;;;4977157;28;20059;-80
2024/03/30 09:23:12;;;;;;;6.22;2.33;;;;;;;;;;4977204;28;20039;-80
2024/03/30 09:25:40;;;;;;;8.50;2.10;;;;;;;;;;4981076;28;20042;-79
2024/03/30 09:28:08;;;;;;;12.63;2.60;;;;;;;;;;4982747;28;20061;-80
2024/03/30 09:30:36;;;;;;;9.25;2.33;;;;;;;;;;4985238;28;20059;-79
2024/03/30 09:33:04;;;;;;;5.85;2.28;;;;;;;;;;4981610;28;20478;-79
2024/03/30 09:35:32;;;;;;;6.55;2.65;;;;;;;;;;4975026;28;20070;-79
2024/03/30 09:38:00;;;;;;;9.63;2.53;;;;;;;;;;4974496;28;20059;-80
2024/03/30 09:40:29;;;;;;;8.75;2.65;;;;;;;;;;4975546;28;20537;-80
2024/03/30 09:42:58;;;;;;;7.72;2.40;;;;;;;;;;4959334;28;20055;-79
2024/03/30 09:45:31;;;;;;;7.60;2.75;;;;;;;;;;4974218;28;20057;-80
2024/03/30 09:48:01;;;;;;;9.20;2.38;;;;;;;;;;4974526;28;20068;-80
2024/03/30 09:50:31;;;;;;;5.18;2.13;;;;;;;;;;4975501;28;20058;-80
2024/03/30 09:53:02;;;;;;;5.50;2.42;;;;;;;;;;4974032;28;20433;-83
2024/03/30 09:55:31;;;;;;;7.05;2.38;;;;;;;;;;4975093;28;20042;-80
2024/03/30 09:58:00;;;;;;;7.15;3.08;;;;;;;;;;4973960;28;20055;-81
2024/03/30 10:00:29;;;;;;;9.73;2.70;;;;;;;;;;4975165;28;20062;-80
2024/03/30 10:02:57;;;;;;;8.50;2.47;;;;;;;;;;4974481;28;20050;-80
2024/03/30 10:05:27;;;;;;;6.32;2.25;;;;;;;;;;4974143;28;20054;-79
2024/03/30 10:08:03;;;;;;;10.75;2.85;;;;;;;;;;4973960;28;20054;-80
2024/03/30 10:10:31;;;;;;;7.15;2.80;;;;;;;;;;4974386;28;20042;-81
2024/03/30 10:13:05;;;;;;;5.57;2.15;;;;;;;;;;4974419;28;20061;-82
2024/03/30 10:15:46;;;;;;;8.38;3.53;;;;;;;;;;4975449;28;20364;-80
2024/03/30 10:18:14;;;;;;;6.40;2.38;;;;;;;;;;4974658;28;20062;-79
2024/03/30 10:20:42;;;;;;;5.88;2.17;;;;;;;;;;4974174;28;20501;-80
2024/03/30 10:23:11;;;;;;;4.28;2.10;;;;;;;;;;4974681;28;20043;-80
2024/03/30 10:25:54;;;;;;;6.35;2.22;;;;;;;;;;4975050;28;20486;-80
2024/03/30 10:28:22;;;;;;;9.48;2.30;;;;;;;;;;4974070;28;20501;-80
2024/03/30 10:30:51;;;;;;;6.45;2.00;;;;;;;;;;4974901;28;20035;-83
2024/03/30 10:33:21;;;;;;;6.10;2.40;;;;;;;;;;4973550;28;20053;-79
2024/03/30 10:35:50;;;;;;;3.42;2.13;;;;;;;;;;4973911;28;20062;-80
2024/03/30 10:38:18;;;;;;;6.00;2.80;;;;;;;;;;4973835;28;20055;-79
2024/03/30 10:40:48;;;;;;;14.60;2.72;;;;;;;;;;4974476;28;20043;-81
2024/03/30 10:43:16;;;;;;;5.93;1.98;;;;;;;;;;4973273;28;20059;-79
2024/03/30 10:45:46;;;;;;;6.65;2.17;;;;;;;;;;4973557;28;20050;-80
2024/03/30 10:48:14;;;;;;;5.75;1.65;;;;;;;;;;4975057;28;20466;-80
2024/03/30 10:50:43;;;;;;;4.35;1.75;;;;;;;;;;4981424;28;20050;-80
2024/03/30 10:53:14;;;;;;;7.18;1.80;;;;;;;;;;4980968;28;20138;-80
2024/03/30 10:55:43;;;;;;;5.88;1.48;;;;;;;;;;4972708;28;20042;-80
2024/03/30 10:58:12;;;;;;;5.18;1.73;;;;;;;;;;4974217;28;20058;-80
2024/03/30 11:00:43;;;;;;;8.10;2.05;;;;;;;;;;4973490;28;20051;-80
2024/03/30 11:03:15;;;;;;;3.63;1.83;;;;;;;;;;4973389;28;20055;-80
2024/03/30 11:05:43;;;;;;;;;;;;;;;;;;4974618;28;20433;-82
2024/03/30 11:08:13;;;;;;;14.10;3.25;;;;;;;;;;4957149;28;19929;-79
2024/03/30 11:10:42;;;;;;;6.25;2.03;;;;;;;;;;4972831;28;20046;-79
2024/03/30 11:13:10;;;;;;;4.57;1.80;;;;;;;;;;4973286;28;20058;-82
2024/03/30 11:15:42;;;;;;;4.53;1.92;;;;;;;;;;4973016;28;20139;-80
2024/03/30 11:18:12;;;;;;;;;;;;;;;;;;4973634;28;20074;-80
2024/03/30 11:20:58;;;;;;;9.18;2.67;;;;;;;;;;4972906;28;19921;-81
2024/03/30 11:23:42;;;;;;;10.95;2.88;;;;;;;;;;4974119;28;20390;-80
2024/03/30 11:26:12;;;;;;;11.85;2.38;;;;;;;;;;4973080;28;20050;-80
2024/03/30 11:29:30;;;;;;;3.17;1.75;;;;;;;;;;4978752;28;20050;-83
2024/03/30 11:32:12;;;;;;;23.15;6.00;;;;;;;;;;4973785;28;20506;-82
2024/03/30 11:34:57;;;;;;;11.77;2.40;;;;;;;;;;4974075;28;20478;-81
2024/03/30 11:37:28;;;;;;;6.25;3.13;;;;;;;;;;4973775;28;20053;-80
2024/03/30 11:40:17;;;;;;;14.30;3.85;;;;;;;;;;4972924;28;20049;-81
2024/03/30 11:43:08;;;;;;;11.43;3.20;;;;;;;;;;4973823;28;20478;-84
2024/03/30 11:45:40;;;;;;;8.75;3.72;;;;;;;;;;4973769;28;20047;-81
2024/03/30 11:48:09;;;;;;;9.48;4.30;;;;;;;;;;4974041;28;20051;-80
2024/03/30 11:50:38;;;;;;;5.68;3.65;;;;;;;;;;4958627;28;20051;-81
2024/03/30 11:53:18;;;;;;;7.47;3.67;;;;;;;;;;4973514;28;20047;-81
2024/03/30 11:55:51;;;;;;;6.35;3.70;;;;;;;;;;4957488;28;20047;-81
2024/03/30 11:58:23;;;;;;;8.25;4.63;;;;;;;;;;4973543;28;20050;-84
2024/03/30 12:00:52;;;;;;;13.77;5.20;;;;;;;;;;4957791;28;20046;-81
2024/03/30 12:03:20;;;;;;;10.38;4.75;;;;;;;;;;4973358;28;20042;-81
2024/03/30 12:05:52;;;;;;;8.70;4.40;;;;;;;;;;4957018;28;20050;-81
2024/03/30 12:08:28;;;;;;;9.98;3.47;;;;;;;;;;4972965;28;20046;-80
2024/03/30 12:11:01;;;;;;;8.60;3.50;;;;;;;;;;4973311;28;20069;-80
2024/03/30 12:13:38;;;;;;;8.57;3.17;;;;;;;;;;4973194;28;20047;-81
2024/03/30 12:16:07;;;;;;;5.45;2.67;;;;;;;;;;4973656;28;20039;-80
2024/03/30 12:18:35;;;;;;;11.80;2.95;;;;;;;;;;4972866;28;20390;-80
2024/03/30 12:21:04;;;;;;;7.15;2.60;;;;;;;;;;4972880;28;20054;-81
2024/03/30 12:23:33;;;;;;;5.88;2.58;;;;;;;;;;4972518;28;20062;-81
2024/03/30 12:26:03;;;;;;;6.85;2.80;;;;;;;;;;4973198;28;20039;-79
2024/03/30 12:28:31;;;;;;;5.10;2.13;;;;;;;;;;4973010;28;20062;-79
2024/03/30 12:31:03;;;;;;;6.93;2.58;;;;;;;;;;4973547;28;20051;-80
2024/03/30 12:33:31;;;;;;;5.43;2.17;;;;;;;;;;4973096;28;20043;-82
2024/03/30 12:35:59;;;;;;;6.05;2.60;;;;;;;;;;4973416;28;20048;-80
2024/03/30 12:38:28;;;;;;;5.18;2.53;;;;;;;;;;4956791;28;20047;-81
2024/03/30 12:40:57;;;;;;;7.45;2.70;;;;;;;;;;4972839;28;20047;-81
2024/03/30 12:43:25;;;;;;;7.18;2.63;;;;;;;;;;4972800;28;20402;-82
2024/03/30 12:45:57;;;;;;;8.02;3.25;;;;;;;;;;4972691;28;20406;-83
2024/03/30 12:48:25;;;;;;;8.15;3.22;;;;;;;;;;4972874;28;20039;-81
2024/03/30 12:50:53;;;;;;;4.13;2.35;;;;;;;;;;4973997;28;20061;-81
2024/03/30 12:53:22;;;;;;;8.38;2.90;;;;;;;;;;4973310;28;20047;-80
2024/03/30 12:55:50;;;;;;;9.90;4.72;;;;;;;;;;4975455;28;20421;-80
2024/03/30 12:58:18;;;;;;;10.30;4.75;;;;;;;;;;4958623;28;20102;-80
2024/03/30 13:00:47;;;;;;;8.80;5.07;;;;;;;;;;4975411;28;20383;-80
2024/03/30 13:03:15;;;;;;;4.18;2.63;;;;;;;;;;4975664;28;20047;-80
2024/03/30 13:05:43;;;;;;;6.72;3.60;;;;;;;;;;4975812;28;20046;-80
2024/03/30 13:08:13;;;;;;;9.55;2.92;;;;;;;;;;4976021;28;20046;-81
2024/03/30 13:10:42;;;;;;;11.68;3.55;;;;;;;;;;4975021;28;20470;-82
2024/03/30 13:13:12;;;;;;;5.70;3.20;;;;;;;;;;4975475;28;20434;-80
2024/03/30 13:15:41;;;;;;;6.15;2.92;;;;;;;;;;4975376;28;20043;-80
2024/03/30 13:18:10;;;;;;;7.65;3.00;;;;;;;;;;4975292;28;20050;-81
2024/03/30 13:20:41;;;;;;;5.82;3.28;;;;;;;;;;4975165;28;20043;-80
2024/03/30 13:23:10;;;;;;;5.97;3.30;;;;;;;;;;4958415;28;20058;-80
2024/03/30 13:25:39;;;;;;;7.95;3.53;;;;;;;;;;4975282;28;20043;-80
2024/03/30 13:28:07;;;;;;;10.68;3.63;;;;;;;;;;4975509;28;20047;-80
2024/03/30 13:30:36;;;;;;;7.95;4.25;;;;;;;;;;4975575;28;20055;-80
2024/03/30 13:33:04;;;;;;;8.30;3.08;;;;;;;;;;4975217;28;20058;-81
2024/03/30 13:35:33;;;;;;;8.43;3.10;;;;;;;;;;4975122;28;20042;-81
2024/03/30 13:38:02;;;;;;;5.32;2.70;;;;;;;;;;4974833;28;20536;-81
2024/03/30 13:40:30;;;;;;;8.73;3.38;;;;;;;;;;4958827;28;20042;-80
2024/03/30 13:43:00;;;;;;;5.95;2.53;;;;;;;;;;4974975;28;20513;-80
2024/03/30 13:45:31;;;;;;;6.10;2.63;;;;;;;;;;4959615;28;20063;-80
2024/03/30 13:48:00;;;;;;;6.35;2.53;;;;;;;;;;4975708;28;20053;-80
2024/03/30 13:50:28;;;;;;;4.18;2.00;;;;;;;;;;4975182;28;20054;-82
2024/03/30 13:52:56;;;;;;;5.57;2.25;;;;;;;;;;4975923;28;20390;-81
2024/03/30 13:55:25;;;;;;;8.48;2.47;;;;;;;;;;4975311;28;20065;-81
2024/03/30 13:57:53;;;;;;;3.85;2.20;;;;;;;;;;4975003;28;20489;-80
2024/03/30 14:00:22;;;;;;;4.90;2.30;;;;;;;;;;4975146;28;20057;-81
2024/03/30 14:02:50;;;;;;;5.28;2.25;;;;;;;;;;4974512;28;20174;-81
2024/03/30 14:05:21;;;;;;;8.38;2.05;;;;;;;;;;4974804;28;20051;-81
2024/03/30 14:07:50;;;;;;;7.00;2.55;;;;;;;;;;4958764;28;20043;-81
2024/03/30 14:10:18;;;;;;;4.95;2.08;;;;;;;;;;4957712;28;20512;-82
2024/03/30 14:12:47;;;;;;;4.95;3.00;;;;;;;;;;4959446;28;20398;-81
2024/03/30 14:15:15;;;;;;;6.13;2.30;;;;;;;;;;4975000;28;20054;-85
2024/03/30 14:17:45;;;;;;;4.88;2.05;;;;;;;;;;4975011;28;20047;-85
2024/03/30 14:20:13;;;;;;;6.63;2.28;;;;;;;;;;4971519;28;20062;-86
2024/03/30 14:22:42;;;;;;;5.72;2.25;;;;;;;;;;4969744;28;20043;-84
2024/03/30 14:25:10;;;;;;;8.07;2.45;;;;;;;;;;4968109;28;20059;-84
2024/03/30 14:27:38;;;;;;;6.88;2.38;;;;;;;;;;4959565;28;20064;-82
2024/03/30 14:30:07;;;;;;;3.50;1.50;;;;;;;;;;4960885;29;20055;-80
2024/03/30 14:32:35;;;;;;;3.95;1.90;;;;;;;;;;4964320;28;20047;-85
2024/03/30 14:35:03;;;;;;;6.65;2.08;;;;;;;;;;4972921;28;20477;-83
2024/03/30 14:37:31;;;;;;;5.10;2.20;;;;;;;;;;4972058;28;20407;-82
2024/03/30 14:40:00;;;;;;;4.05;1.83;;;;;;;;;;4972442;28;20465;-83
2024/03/30 14:42:28;;;;;;;7.57;2.10;;;;;;;;;;4974396;28;20057;-83
2024/03/30 14:44:56;;;;;;;3.88;2.33;;;;;;;;;;4974930;28;20397;-83
2024/03/30 14:47:24;;;;;;;8.70;1.85;;;;;;;;;;4974374;28;20058;-83
2024/03/30 14:49:52;;;;;;;6.13;1.95;;;;;;;;;;4974675;28;20047;-82
2024/03/30 14:52:20;;;;;;;5.13;2.63;;;;;;;;;;4974333;28;20050;-83
2024/03/30 14:54:49;;;;;;;5.60;2.40;;;;;;;;;;4974650;28;20047;-82
2024/03/30 14:57:17;;;;;;;4.97;2.00;;;;;;;;;;4974155;28;20058;-82
2024/03/30 14:59:45;;;;;;;6.93;2.42;;;;;;;;;;4974570;28;20050;-85
2024/03/30 15:02:13;;;;;;;3.53;1.40;;;;;;;;;;4958087;28;20417;-83
2024/03/30 15:04:42;;;;;;;4.25;1.50;;;;;;;;;;4958708;28;20051;-83
2024/03/30 15:07:10;;;;;;;3.95;1.52;;;;;;;;;;4974157;28;20057;-83